sensor_id;sensor_type;location;lat;lon;timestamp;temperature;humidity
23597;DHT22;40226;50.874;4.394;2023-05-10T00:00:41;13.10;99.90
23597;DHT22;40226;50.874;4.394;2023-05-10T00:03:06;13.10;99.90
23597;DHT22;40226;50.874;4.394;2023-05-10T00:05:32;13.10;99.90
23597;DHT22;40226;50.874;4.394;2023-05-10T00:07:58;13.10;99.90
23597;DHT22;40226;50.874;4.394;2023-05-10T00:10:23;13.20;99.90
23597;DHT22;40226;50.874;4.394;2023-05-10T00:12:49;13.00;99.90
23597;DHT22;40226;50.874;4.394;2023-05-10T00:15:15;13.00;99.90
23597;DHT22;40226;50.874;4.394;2023-05-10T00:17:40;12.90;99.90
23597;DHT22;40226;50.874;4.394;2023-05-10T00:20:06;13.00;99.90
23597;DHT22;40226;50.874;4.394;2023-05-10T00:22:33;13.00;99.90
23597;DHT22;40226;50.874;4.394;2023-05-10T00:24:59;13.00;99.90
23597;DHT22;40226;50.874;4.394;2023-05-10T00:27:24;13.00;99.90
23597;DHT22;40226;50.874;4.394;2023-05-10T00:29:50;13.00;99.90
23597;DHT22;40226;50.874;4.394;2023-05-10T00:32:16;13.00;99.90
23597;DHT22;40226;50.874;4.394;2023-05-10T00:34:42;13.10;99.90
23597;DHT22;40226;50.874;4.394;2023-05-10T00:37:07;13.10;99.90
23597;DHT22;40226;50.874;4.394;2023-05-10T00:39:33;13.00;99.90
23597;DHT22;40226;50.874;4.394;2023-05-10T00:41:59;13.00;99.90
23597;DHT22;40226;50.874;4.394;2023-05-10T00:44:25;13.00;99.90
23597;DHT22;40226;50.874;4.394;2023-05-10T00:46:51;13.10;99.90
23597;DHT22;40226;50.874;4.394;2023-05-10T00:49:17;13.10;99.90
23597;DHT22;40226;50.874;4.394;2023-05-10T00:51:43;13.10;99.90
23597;DHT22;40226;50.874;4.394;2023-05-10T00:54:14;13.10;99.90
23597;DHT22;40226;50.874;4.394;2023-05-10T00:56:40;13.10;99.90
23597;DHT22;40226;50.874;4.394;2023-05-10T00:59:07;13.10;99.90
23597;DHT22;40226;50.874;4.394;2023-05-10T01:01:33;13.10;99.90
23597;DHT22;40226;50.874;4.394;2023-05-10T01:03:59;13.10;99.90
23597;DHT22;40226;50.874;4.394;2023-05-10T01:06:25;13.10;99.90
23597;DHT22;40226;50.874;4.394;2023-05-10T01:08:51;13.10;99.90
23597;DHT22;40226;50.874;4.394;2023-05-10T01:11:16;13.10;99.90
23597;DHT22;40226;50.874;4.394;2023-05-10T01:13:43;13.10;99.90
23597;DHT22;40226;50.874;4.394;2023-05-10T01:16:11;13.00;99.90
23597;DHT22;40226;50.874;4.394;2023-05-10T01:18:39;13.00;99.90
23597;DHT22;40226;50.874;4.394;2023-05-10T01:27:30;12.90;99.90
23597;DHT22;40226;50.874;4.394;2023-05-10T01:36:01;12.90;99.90
23597;DHT22;40226;50.874;4.394;2023-05-10T01:38:42;12.90;99.90
23597;DHT22;40226;50.874;4.394;2023-05-10T01:41:16;12.90;99.90
23597;DHT22;40226;50.874;4.394;2023-05-10T01:46:32;12.90;99.90
23597;DHT22;40226;50.874;4.394;2023-05-10T01:49:00;12.80;99.90
23597;DHT22;40226;50.874;4.394;2023-05-10T01:51:33;12.80;99.90
23597;DHT22;40226;50.874;4.394;2023-05-10T01:54:03;12.80;99.90
23597;DHT22;40226;50.874;4.394;2023-05-10T01:56:30;12.80;99.90
23597;DHT22;40226;50.874;4.394;2023-05-10T01:58:58;12.80;99.90
23597;DHT22;40226;50.874;4.394;2023-05-10T02:01:25;12.90;99.90
23597;DHT22;40226;50.874;4.394;2023-05-10T02:03:53;12.90;99.90
23597;DHT22;40226;50.874;4.394;2023-05-10T02:06:22;12.90;99.90
23597;DHT22;40226;50.874;4.394;2023-05-10T02:08:50;12.80;99.90
23597;DHT22;40226;50.874;4.394;2023-05-10T02:11:18;12.80;99.90
23597;DHT22;40226;50.874;4.394;2023-05-10T02:13:47;12.80;99.90
23597;DHT22;40226;50.874;4.394;2023-05-10T02:16:16;12.90;99.90
23597;DHT22;40226;50.874;4.394;2023-05-10T02:18:42;12.90;99.90
23597;DHT22;40226;50.874;4.394;2023-05-10T02:21:10;12.90;99.90
23597;DHT22;40226;50.874;4.394;2023-05-10T02:23:36;13.00;99.90
23597;DHT22;40226;50.874;4.394;2023-05-10T02:26:04;13.10;99.90
23597;DHT22;40226;50.874;4.394;2023-05-10T02:28:32;13.00;99.90
23597;DHT22;40226;50.874;4.394;2023-05-10T02:30:59;12.90;99.90
23597;DHT22;40226;50.874;4.394;2023-05-10T02:33:25;12.90;99.90
23597;DHT22;40226;50.874;4.394;2023-05-10T02:35:52;12.90;99.90
23597;DHT22;40226;50.874;4.394;2023-05-10T02:38:20;12.90;99.90
23597;DHT22;40226;50.874;4.394;2023-05-10T02:40:47;12.90;99.90
23597;DHT22;40226;50.874;4.394;2023-05-10T02:43:15;13.00;99.90
23597;DHT22;40226;50.874;4.394;2023-05-10T02:45:43;13.00;99.90
23597;DHT22;40226;50.874;4.394;2023-05-10T02:48:09;12.90;99.90
23597;DHT22;40226;50.874;4.394;2023-05-10T02:50:36;12.90;99.90
23597;DHT22;40226;50.874;4.394;2023-05-10T02:53:15;12.90;99.90
23597;DHT22;40226;50.874;4.394;2023-05-10T02:55:42;13.00;99.90
23597;DHT22;40226;50.874;4.394;2023-05-10T02:58:10;12.90;99.90
23597;DHT22;40226;50.874;4.394;2023-05-10T03:00:36;13.00;99.90
23597;DHT22;40226;50.874;4.394;2023-05-10T03:03:02;13.00;99.90
23597;DHT22;40226;50.874;4.394;2023-05-10T03:05:27;13.00;99.90
23597;DHT22;40226;50.874;4.394;2023-05-10T03:07:53;13.10;99.90
23597;DHT22;40226;50.874;4.394;2023-05-10T03:10:23;13.10;99.90
23597;DHT22;40226;50.874;4.394;2023-05-10T03:18:23;13.10;99.90
23597;DHT22;40226;50.874;4.394;2023-05-10T03:20:50;13.10;99.90
23597;DHT22;40226;50.874;4.394;2023-05-10T03:23:26;13.20;99.90
23597;DHT22;40226;50.874;4.394;2023-05-10T03:25:52;13.20;99.90
23597;DHT22;40226;50.874;4.394;2023-05-10T03:28:20;13.30;99.90
23597;DHT22;40226;50.874;4.394;2023-05-10T03:30:46;13.30;99.90
23597;DHT22;40226;50.874;4.394;2023-05-10T03:33:12;13.30;99.90
23597;DHT22;40226;50.874;4.394;2023-05-10T03:35:39;13.30;99.90
23597;DHT22;40226;50.874;4.394;2023-05-10T03:38:04;13.30;99.90
23597;DHT22;40226;50.874;4.394;2023-05-10T03:40:30;13.20;99.90
23597;DHT22;40226;50.874;4.394;2023-05-10T03:43:00;13.20;99.90
23597;DHT22;40226;50.874;4.394;2023-05-10T03:45:26;13.30;99.90
23597;DHT22;40226;50.874;4.394;2023-05-10T03:47:52;13.40;99.90
23597;DHT22;40226;50.874;4.394;2023-05-10T03:50:18;13.30;99.90
23597;DHT22;40226;50.874;4.394;2023-05-10T03:52:44;13.20;99.90
23597;DHT22;40226;50.874;4.394;2023-05-10T03:55:09;13.40;99.90
23597;DHT22;40226;50.874;4.394;2023-05-10T03:57:35;13.50;99.90
23597;DHT22;40226;50.874;4.394;2023-05-10T04:00:02;13.70;99.90
23597;DHT22;40226;50.874;4.394;2023-05-10T04:02:28;13.80;99.90
23597;DHT22;40226;50.874;4.394;2023-05-10T04:04:55;13.50;99.90
23597;DHT22;40226;50.874;4.394;2023-05-10T04:07:20;13.40;99.90
23597;DHT22;40226;50.874;4.394;2023-05-10T04:09:46;13.40;99.90
23597;DHT22;40226;50.874;4.394;2023-05-10T04:12:12;13.30;99.90
23597;DHT22;40226;50.874;4.394;2023-05-10T04:14:38;13.20;99.90
23597;DHT22;40226;50.874;4.394;2023-05-10T04:17:03;13.10;99.90
23597;DHT22;40226;50.874;4.394;2023-05-10T04:19:32;13.10;99.90
23597;DHT22;40226;50.874;4.394;2023-05-10T04:21:58;13.10;99.90
23597;DHT22;40226;50.874;4.394;2023-05-10T04:24:34;13.20;99.90
23597;DHT22;40226;50.874;4.394;2023-05-10T04:27:00;13.40;99.90
23597;DHT22;40226;50.874;4.394;2023-05-10T04:29:25;13.60;99.90
23597;DHT22;40226;50.874;4.394;2023-05-10T04:31:52;13.40;99.90
23597;DHT22;40226;50.874;4.394;2023-05-10T04:34:17;13.30;99.90
23597;DHT22;40226;50.874;4.394;2023-05-10T04:36:43;13.40;99.90
23597;DHT22;40226;50.874;4.394;2023-05-10T04:39:09;13.40;99.90
23597;DHT22;40226;50.874;4.394;2023-05-10T04:41:35;13.30;99.90
23597;DHT22;40226;50.874;4.394;2023-05-10T04:44:01;13.40;99.90
23597;DHT22;40226;50.874;4.394;2023-05-10T04:46:26;13.40;99.90
23597;DHT22;40226;50.874;4.394;2023-05-10T04:48:52;13.70;99.90
23597;DHT22;40226;50.874;4.394;2023-05-10T04:51:17;13.80;99.90
23597;DHT22;40226;50.874;4.394;2023-05-10T04:53:43;13.90;99.90
23597;DHT22;40226;50.874;4.394;2023-05-10T04:56:08;13.70;99.90
23597;DHT22;40226;50.874;4.394;2023-05-10T04:58:34;13.60;99.90
23597;DHT22;40226;50.874;4.394;2023-05-10T05:01:07;13.50;99.90
23597;DHT22;40226;50.874;4.394;2023-05-10T05:03:33;13.50;99.90
23597;DHT22;40226;50.874;4.394;2023-05-10T05:05:59;13.50;99.90
23597;DHT22;40226;50.874;4.394;2023-05-10T05:08:24;13.60;99.90
23597;DHT22;40226;50.874;4.394;2023-05-10T05:10:50;13.60;99.90
23597;DHT22;40226;50.874;4.394;2023-05-10T05:13:16;13.50;99.90
23597;DHT22;40226;50.874;4.394;2023-05-10T05:15:42;13.50;99.90
23597;DHT22;40226;50.874;4.394;2023-05-10T05:18:07;13.70;99.90
23597;DHT22;40226;50.874;4.394;2023-05-10T05:20:33;13.90;99.90
23597;DHT22;40226;50.874;4.394;2023-05-10T05:23:00;13.80;99.90
23597;DHT22;40226;50.874;4.394;2023-05-10T05:25:25;14.00;99.90
23597;DHT22;40226;50.874;4.394;2023-05-10T05:27:51;13.90;99.90
23597;DHT22;40226;50.874;4.394;2023-05-10T05:30:17;14.10;99.90
23597;DHT22;40226;50.874;4.394;2023-05-10T05:32:42;14.00;99.90
23597;DHT22;40226;50.874;4.394;2023-05-10T05:35:08;14.20;99.90
23597;DHT22;40226;50.874;4.394;2023-05-10T05:37:34;14.10;99.90
23597;DHT22;40226;50.874;4.394;2023-05-10T05:40:00;14.20;99.90
23597;DHT22;40226;50.874;4.394;2023-05-10T05:42:27;14.30;99.90
23597;DHT22;40226;50.874;4.394;2023-05-10T05:44:53;14.40;99.90
23597;DHT22;40226;50.874;4.394;2023-05-10T05:47:18;14.30;99.90
23597;DHT22;40226;50.874;4.394;2023-05-10T05:49:44;14.40;99.90
23597;DHT22;40226;50.874;4.394;2023-05-10T05:52:11;14.50;99.90
23597;DHT22;40226;50.874;4.394;2023-05-10T05:54:37;14.50;99.90
23597;DHT22;40226;50.874;4.394;2023-05-10T05:57:02;14.30;99.90
23597;DHT22;40226;50.874;4.394;2023-05-10T05:59:28;14.10;99.90
23597;DHT22;40226;50.874;4.394;2023-05-10T06:01:54;14.10;99.90
23597;DHT22;40226;50.874;4.394;2023-05-10T06:04:20;14.10;99.90
23597;DHT22;40226;50.874;4.394;2023-05-10T06:06:45;14.10;99.90
23597;DHT22;40226;50.874;4.394;2023-05-10T06:09:11;14.10;99.90
23597;DHT22;40226;50.874;4.394;2023-05-10T06:11:37;14.10;99.90
23597;DHT22;40226;50.874;4.394;2023-05-10T06:14:03;13.80;99.90
23597;DHT22;40226;50.874;4.394;2023-05-10T06:16:34;14.00;99.90
23597;DHT22;40226;50.874;4.394;2023-05-10T06:18:59;13.90;99.90
23597;DHT22;40226;50.874;4.394;2023-05-10T06:21:25;13.80;99.90
23597;DHT22;40226;50.874;4.394;2023-05-10T06:23:50;13.90;99.90
23597;DHT22;40226;50.874;4.394;2023-05-10T06:26:16;13.90;99.90
23597;DHT22;40226;50.874;4.394;2023-05-10T06:28:42;13.70;99.90
23597;DHT22;40226;50.874;4.394;2023-05-10T06:31:08;13.50;99.90
23597;DHT22;40226;50.874;4.394;2023-05-10T06:33:34;13.80;99.90
23597;DHT22;40226;50.874;4.394;2023-05-10T06:36:00;13.80;99.90
23597;DHT22;40226;50.874;4.394;2023-05-10T06:38:25;13.80;99.90
23597;DHT22;40226;50.874;4.394;2023-05-10T06:40:51;13.80;99.90
23597;DHT22;40226;50.874;4.394;2023-05-10T06:43:17;13.80;99.90
23597;DHT22;40226;50.874;4.394;2023-05-10T06:45:43;13.90;99.90
23597;DHT22;40226;50.874;4.394;2023-05-10T06:48:08;13.80;99.90
23597;DHT22;40226;50.874;4.394;2023-05-10T06:50:34;13.50;99.90
23597;DHT22;40226;50.874;4.394;2023-05-10T06:53:00;13.70;99.90
23597;DHT22;40226;50.874;4.394;2023-05-10T06:55:27;13.70;99.90
23597;DHT22;40226;50.874;4.394;2023-05-10T06:57:52;13.80;99.90
23597;DHT22;40226;50.874;4.394;2023-05-10T07:00:19;13.60;99.90
23597;DHT22;40226;50.874;4.394;2023-05-10T07:02:45;13.50;99.90
23597;DHT22;40226;50.874;4.394;2023-05-10T07:05:10;13.30;99.90
23597;DHT22;40226;50.874;4.394;2023-05-10T07:07:37;13.20;99.90
23597;DHT22;40226;50.874;4.394;2023-05-10T07:10:03;13.20;99.90
23597;DHT22;40226;50.874;4.394;2023-05-10T07:12:31;13.40;99.90
23597;DHT22;40226;50.874;4.394;2023-05-10T07:14:56;13.60;99.90
23597;DHT22;40226;50.874;4.394;2023-05-10T07:17:22;13.40;99.90
23597;DHT22;40226;50.874;4.394;2023-05-10T07:19:48;13.20;99.90
23597;DHT22;40226;50.874;4.394;2023-05-10T07:22:14;13.10;99.90
23597;DHT22;40226;50.874;4.394;2023-05-10T07:24:40;13.20;99.90
23597;DHT22;40226;50.874;4.394;2023-05-10T07:27:06;13.10;99.90
23597;DHT22;40226;50.874;4.394;2023-05-10T07:29:32;12.90;99.90
23597;DHT22;40226;50.874;4.394;2023-05-10T07:31:58;13.10;99.90
23597;DHT22;40226;50.874;4.394;2023-05-10T07:34:24;12.90;99.90
23597;DHT22;40226;50.874;4.394;2023-05-10T07:36:51;12.70;99.90
23597;DHT22;40226;50.874;4.394;2023-05-10T07:39:17;12.80;99.90
23597;DHT22;40226;50.874;4.394;2023-05-10T07:41:42;12.90;99.90
23597;DHT22;40226;50.874;4.394;2023-05-10T07:44:08;12.90;99.90
23597;DHT22;40226;50.874;4.394;2023-05-10T07:46:34;12.90;99.90
23597;DHT22;40226;50.874;4.394;2023-05-10T07:49:00;12.80;99.90
23597;DHT22;40226;50.874;4.394;2023-05-10T07:51:25;12.80;99.90
23597;DHT22;40226;50.874;4.394;2023-05-10T07:53:51;12.70;99.90
23597;DHT22;40226;50.874;4.394;2023-05-10T07:58:49;12.70;99.90
23597;DHT22;40226;50.874;4.394;2023-05-10T08:01:15;12.70;99.90
23597;DHT22;40226;50.874;4.394;2023-05-10T08:03:40;12.60;99.90
23597;DHT22;40226;50.874;4.394;2023-05-10T08:06:06;12.70;99.90
23597;DHT22;40226;50.874;4.394;2023-05-10T08:08:32;12.80;99.90
23597;DHT22;40226;50.874;4.394;2023-05-10T08:10:57;12.70;99.90
23597;DHT22;40226;50.874;4.394;2023-05-10T08:13:23;12.80;99.90
23597;DHT22;40226;50.874;4.394;2023-05-10T08:15:48;12.90;99.90
23597;DHT22;40226;50.874;4.394;2023-05-10T08:18:14;13.10;99.90
23597;DHT22;40226;50.874;4.394;2023-05-10T08:20:40;13.20;99.90
23597;DHT22;40226;50.874;4.394;2023-05-10T08:23:05;13.50;99.90
23597;DHT22;40226;50.874;4.394;2023-05-10T08:25:31;13.60;99.90
23597;DHT22;40226;50.874;4.394;2023-05-10T08:27:57;13.60;99.90
23597;DHT22;40226;50.874;4.394;2023-05-10T08:30:23;14.00;99.90
23597;DHT22;40226;50.874;4.394;2023-05-10T08:32:48;14.30;99.90
23597;DHT22;40226;50.874;4.394;2023-05-10T08:35:15;14.00;99.90
23597;DHT22;40226;50.874;4.394;2023-05-10T08:37:41;14.10;99.90
23597;DHT22;40226;50.874;4.394;2023-05-10T08:40:08;14.00;99.90
23597;DHT22;40226;50.874;4.394;2023-05-10T08:42:36;13.90;99.90
23597;DHT22;40226;50.874;4.394;2023-05-10T08:45:07;13.80;99.90
23597;DHT22;40226;50.874;4.394;2023-05-10T08:47:35;14.00;99.90
23597;DHT22;40226;50.874;4.394;2023-05-10T08:50:02;14.20;99.90
23597;DHT22;40226;50.874;4.394;2023-05-10T08:52:30;14.40;99.90
23597;DHT22;40226;50.874;4.394;2023-05-10T08:54:56;14.40;99.90
23597;DHT22;40226;50.874;4.394;2023-05-10T08:57:22;14.30;99.90
23597;DHT22;40226;50.874;4.394;2023-05-10T08:59:48;14.50;99.90
23597;DHT22;40226;50.874;4.394;2023-05-10T09:02:14;14.70;99.90
23597;DHT22;40226;50.874;4.394;2023-05-10T09:04:39;14.60;99.90
23597;DHT22;40226;50.874;4.394;2023-05-10T09:07:06;14.80;99.90
23597;DHT22;40226;50.874;4.394;2023-05-10T09:09:32;14.70;99.90
23597;DHT22;40226;50.874;4.394;2023-05-10T09:11:58;14.20;99.90
23597;DHT22;40226;50.874;4.394;2023-05-10T09:14:25;14.10;99.90
23597;DHT22;40226;50.874;4.394;2023-05-10T09:16:54;14.00;99.90
23597;DHT22;40226;50.874;4.394;2023-05-10T09:19:20;14.00;99.90
23597;DHT22;40226;50.874;4.394;2023-05-10T09:21:46;13.90;99.90
23597;DHT22;40226;50.874;4.394;2023-05-10T09:24:12;13.80;99.90
23597;DHT22;40226;50.874;4.394;2023-05-10T09:26:46;13.70;99.90
23597;DHT22;40226;50.874;4.394;2023-05-10T09:29:15;13.50;99.90
23597;DHT22;40226;50.874;4.394;2023-05-10T09:31:51;13.50;99.90
23597;DHT22;40226;50.874;4.394;2023-05-10T09:34:18;13.40;99.90
23597;DHT22;40226;50.874;4.394;2023-05-10T09:36:55;13.20;99.90
23597;DHT22;40226;50.874;4.394;2023-05-10T09:39:36;13.10;99.90
23597;DHT22;40226;50.874;4.394;2023-05-10T09:42:07;13.10;99.90
23597;DHT22;40226;50.874;4.394;2023-05-10T09:44:34;13.10;99.90
23597;DHT22;40226;50.874;4.394;2023-05-10T09:47:01;13.10;99.90
23597;DHT22;40226;50.874;4.394;2023-05-10T09:49:27;13.00;99.90
23597;DHT22;40226;50.874;4.394;2023-05-10T09:52:05;13.10;99.90
23597;DHT22;40226;50.874;4.394;2023-05-10T09:54:31;13.20;99.90
23597;DHT22;40226;50.874;4.394;2023-05-10T09:56:57;13.20;99.90
23597;DHT22;40226;50.874;4.394;2023-05-10T09:59:25;13.30;99.90
23597;DHT22;40226;50.874;4.394;2023-05-10T10:01:53;13.20;99.90
23597;DHT22;40226;50.874;4.394;2023-05-10T10:04:21;13.20;99.90
23597;DHT22;40226;50.874;4.394;2023-05-10T10:06:47;13.20;99.90
23597;DHT22;40226;50.874;4.394;2023-05-10T10:09:23;13.40;99.90
23597;DHT22;40226;50.874;4.394;2023-05-10T10:11:50;13.40;99.90
23597;DHT22;40226;50.874;4.394;2023-05-10T10:14:18;13.40;99.90
23597;DHT22;40226;50.874;4.394;2023-05-10T10:16:44;13.30;99.90
23597;DHT22;40226;50.874;4.394;2023-05-10T10:19:10;13.40;99.90
23597;DHT22;40226;50.874;4.394;2023-05-10T10:21:35;13.20;99.90
23597;DHT22;40226;50.874;4.394;2023-05-10T10:24:01;13.20;99.90
23597;DHT22;40226;50.874;4.394;2023-05-10T10:26:27;13.20;99.90
23597;DHT22;40226;50.874;4.394;2023-05-10T10:34:33;13.30;99.90
23597;DHT22;40226;50.874;4.394;2023-05-10T10:37:04;13.30;99.90
23597;DHT22;40226;50.874;4.394;2023-05-10T10:39:30;13.50;99.90
23597;DHT22;40226;50.874;4.394;2023-05-10T10:41:57;13.30;99.90
23597;DHT22;40226;50.874;4.394;2023-05-10T10:44:23;13.50;99.90
23597;DHT22;40226;50.874;4.394;2023-05-10T10:52:40;13.70;99.90
23597;DHT22;40226;50.874;4.394;2023-05-10T10:55:14;13.90;99.90
23597;DHT22;40226;50.874;4.394;2023-05-10T11:02:53;13.80;99.90
23597;DHT22;40226;50.874;4.394;2023-05-10T11:08:30;13.80;99.90
23597;DHT22;40226;50.874;4.394;2023-05-10T11:13:44;13.80;99.90
23597;DHT22;40226;50.874;4.394;2023-05-10T11:18:39;13.80;99.90
23597;DHT22;40226;50.874;4.394;2023-05-10T11:21:05;13.70;99.90
23597;DHT22;40226;50.874;4.394;2023-05-10T11:23:56;13.80;99.90
23597;DHT22;40226;50.874;4.394;2023-05-10T11:26:24;13.90;99.90
23597;DHT22;40226;50.874;4.394;2023-05-10T11:28:54;14.10;99.90
23597;DHT22;40226;50.874;4.394;2023-05-10T11:31:21;14.20;99.90
23597;DHT22;40226;50.874;4.394;2023-05-10T11:36:21;14.30;99.90
23597;DHT22;40226;50.874;4.394;2023-05-10T11:38:47;14.20;99.90
23597;DHT22;40226;50.874;4.394;2023-05-10T11:41:14;14.50;99.90
23597;DHT22;40226;50.874;4.394;2023-05-10T11:43:41;14.60;99.90
23597;DHT22;40226;50.874;4.394;2023-05-10T11:46:11;14.70;99.90
23597;DHT22;40226;50.874;4.394;2023-05-10T11:48:41;15.10;99.90
23597;DHT22;40226;50.874;4.394;2023-05-10T11:51:08;15.40;99.90
23597;DHT22;40226;50.874;4.394;2023-05-10T11:53:34;15.30;99.90
23597;DHT22;40226;50.874;4.394;2023-05-10T11:56:06;15.40;99.90
23597;DHT22;40226;50.874;4.394;2023-05-10T11:58:33;15.30;99.90
23597;DHT22;40226;50.874;4.394;2023-05-10T12:01:00;15.40;99.90
23597;DHT22;40226;50.874;4.394;2023-05-10T12:03:29;15.40;99.90
23597;DHT22;40226;50.874;4.394;2023-05-10T12:05:56;15.30;99.90
23597;DHT22;40226;50.874;4.394;2023-05-10T12:08:26;15.50;99.90
23597;DHT22;40226;50.874;4.394;2023-05-10T12:10:53;15.20;99.90
23597;DHT22;40226;50.874;4.394;2023-05-10T12:13:20;15.50;99.90
23597;DHT22;40226;50.874;4.394;2023-05-10T12:15:46;15.80;99.90
23597;DHT22;40226;50.874;4.394;2023-05-10T12:18:13;15.80;99.90
23597;DHT22;40226;50.874;4.394;2023-05-10T12:20:40;15.90;99.90
23597;DHT22;40226;50.874;4.394;2023-05-10T12:23:07;16.20;99.90
23597;DHT22;40226;50.874;4.394;2023-05-10T12:25:36;15.70;99.90
23597;DHT22;40226;50.874;4.394;2023-05-10T12:28:07;15.80;99.90
23597;DHT22;40226;50.874;4.394;2023-05-10T12:30:35;16.00;99.90
23597;DHT22;40226;50.874;4.394;2023-05-10T12:33:11;15.70;99.90
23597;DHT22;40226;50.874;4.394;2023-05-10T12:35:48;15.80;99.90
23597;DHT22;40226;50.874;4.394;2023-05-10T12:38:33;15.90;99.90
23597;DHT22;40226;50.874;4.394;2023-05-10T12:41:00;16.10;99.90
23597;DHT22;40226;50.874;4.394;2023-05-10T12:43:27;16.80;99.90
23597;DHT22;40226;50.874;4.394;2023-05-10T12:45:52;17.00;99.90
23597;DHT22;40226;50.874;4.394;2023-05-10T12:48:18;17.40;99.90
23597;DHT22;40226;50.874;4.394;2023-05-10T12:50:44;17.40;99.90
23597;DHT22;40226;50.874;4.394;2023-05-10T12:53:10;17.50;99.90
23597;DHT22;40226;50.874;4.394;2023-05-10T12:55:35;17.40;99.90
23597;DHT22;40226;50.874;4.394;2023-05-10T12:58:01;17.80;99.90
23597;DHT22;40226;50.874;4.394;2023-05-10T13:00:27;18.30;99.90
23597;DHT22;40226;50.874;4.394;2023-05-10T13:02:52;18.10;99.90
23597;DHT22;40226;50.874;4.394;2023-05-10T13:05:18;18.00;99.90
23597;DHT22;40226;50.874;4.394;2023-05-10T13:07:44;18.20;99.90
23597;DHT22;40226;50.874;4.394;2023-05-10T13:10:10;18.00;99.90
23597;DHT22;40226;50.874;4.394;2023-05-10T13:12:35;17.80;99.90
23597;DHT22;40226;50.874;4.394;2023-05-10T13:15:01;18.00;99.90
23597;DHT22;40226;50.874;4.394;2023-05-10T13:17:28;17.80;99.90
23597;DHT22;40226;50.874;4.394;2023-05-10T13:19:54;17.80;99.90
23597;DHT22;40226;50.874;4.394;2023-05-10T13:22:20;17.90;99.90
23597;DHT22;40226;50.874;4.394;2023-05-10T13:24:46;18.00;99.90
23597;DHT22;40226;50.874;4.394;2023-05-10T13:27:11;18.30;99.90
23597;DHT22;40226;50.874;4.394;2023-05-10T13:29:37;18.70;99.90
23597;DHT22;40226;50.874;4.394;2023-05-10T13:32:03;18.30;89.00
23597;DHT22;40226;50.874;4.394;2023-05-10T13:34:28;18.20;99.90
23597;DHT22;40226;50.874;4.394;2023-05-10T13:36:54;18.90;99.30
23597;DHT22;40226;50.874;4.394;2023-05-10T13:39:21;18.90;70.50
23597;DHT22;40226;50.874;4.394;2023-05-10T13:41:47;19.10;78.70
23597;DHT22;40226;50.874;4.394;2023-05-10T13:44:13;19.00;76.20
23597;DHT22;40226;50.874;4.394;2023-05-10T13:46:40;18.20;93.30
23597;DHT22;40226;50.874;4.394;2023-05-10T13:49:06;18.30;81.50
23597;DHT22;40226;50.874;4.394;2023-05-10T13:51:33;18.50;77.80
23597;DHT22;40226;50.874;4.394;2023-05-10T13:53:59;18.30;94.10
23597;DHT22;40226;50.874;4.394;2023-05-10T13:56:25;18.40;89.70
23597;DHT22;40226;50.874;4.394;2023-05-10T13:58:51;18.50;93.90
23597;DHT22;40226;50.874;4.394;2023-05-10T14:01:16;18.90;70.80
23597;DHT22;40226;50.874;4.394;2023-05-10T14:03:42;19.30;45.30
23597;DHT22;40226;50.874;4.394;2023-05-10T14:06:08;19.10;56.30
23597;DHT22;40226;50.874;4.394;2023-05-10T14:08:35;19.50;29.60
23597;DHT22;40226;50.874;4.394;2023-05-10T14:11:00;19.60;21.30
23597;DHT22;40226;50.874;4.394;2023-05-10T14:13:26;19.20;26.10
23597;DHT22;40226;50.874;4.394;2023-05-10T14:15:53;19.00;39.50
23597;DHT22;40226;50.874;4.394;2023-05-10T14:18:19;18.90;42.80
23597;DHT22;40226;50.874;4.394;2023-05-10T14:20:44;19.00;36.40
23597;DHT22;40226;50.874;4.394;2023-05-10T14:23:10;18.90;32.80
23597;DHT22;40226;50.874;4.394;2023-05-10T14:25:39;18.60;45.60
23597;DHT22;40226;50.874;4.394;2023-05-10T14:28:05;18.50;51.80
23597;DHT22;40226;50.874;4.394;2023-05-10T14:30:31;18.50;49.50
23597;DHT22;40226;50.874;4.394;2023-05-10T14:32:57;18.00;55.40
23597;DHT22;40226;50.874;4.394;2023-05-10T14:35:23;17.50;90.90
23597;DHT22;40226;50.874;4.394;2023-05-10T14:37:49;17.20;99.90
23597;DHT22;40226;50.874;4.394;2023-05-10T14:40:15;17.20;99.90
23597;DHT22;40226;50.874;4.394;2023-05-10T14:42:42;16.80;99.90
23597;DHT22;40226;50.874;4.394;2023-05-10T14:45:09;17.00;99.90
23597;DHT22;40226;50.874;4.394;2023-05-10T14:47:35;17.20;99.90
23597;DHT22;40226;50.874;4.394;2023-05-10T14:50:00;17.10;99.90
23597;DHT22;40226;50.874;4.394;2023-05-10T14:52:26;17.10;97.90
23597;DHT22;40226;50.874;4.394;2023-05-10T14:54:52;17.10;97.80
23597;DHT22;40226;50.874;4.394;2023-05-10T14:57:17;17.30;96.60
23597;DHT22;40226;50.874;4.394;2023-05-10T14:59:43;17.30;97.50
23597;DHT22;40226;50.874;4.394;2023-05-10T15:02:09;17.10;99.90
23597;DHT22;40226;50.874;4.394;2023-05-10T15:04:35;17.00;99.90
23597;DHT22;40226;50.874;4.394;2023-05-10T15:07:01;16.90;99.90
23597;DHT22;40226;50.874;4.394;2023-05-10T15:09:26;16.70;99.90
23597;DHT22;40226;50.874;4.394;2023-05-10T15:11:55;16.60;99.90
23597;DHT22;40226;50.874;4.394;2023-05-10T15:14:22;16.60;99.90
23597;DHT22;40226;50.874;4.394;2023-05-10T15:16:47;16.50;99.90
23597;DHT22;40226;50.874;4.394;2023-05-10T15:19:13;16.60;99.90
23597;DHT22;40226;50.874;4.394;2023-05-10T15:21:39;16.70;92.50
23597;DHT22;40226;50.874;4.394;2023-05-10T15:24:07;16.80;49.00
23597;DHT22;40226;50.874;4.394;2023-05-10T15:26:33;16.80;13.80
23597;DHT22;40226;50.874;4.394;2023-05-10T15:28:58;16.50;1.00
23597;DHT22;40226;50.874;4.394;2023-05-10T15:31:24;16.30;14.10
23597;DHT22;40226;50.874;4.394;2023-05-10T15:33:50;16.50;15.70
23597;DHT22;40226;50.874;4.394;2023-05-10T15:36:16;16.60;9.90
23597;DHT22;40226;50.874;4.394;2023-05-10T15:38:43;16.20;30.70
23597;DHT22;40226;50.874;4.394;2023-05-10T15:41:09;16.00;54.60
23597;DHT22;40226;50.874;4.394;2023-05-10T15:43:34;16.00;66.80
23597;DHT22;40226;50.874;4.394;2023-05-10T15:46:00;16.00;65.50
23597;DHT22;40226;50.874;4.394;2023-05-10T15:48:26;16.10;74.90
23597;DHT22;40226;50.874;4.394;2023-05-10T15:50:52;16.10;68.20
23597;DHT22;40226;50.874;4.394;2023-05-10T15:53:18;16.40;63.80
23597;DHT22;40226;50.874;4.394;2023-05-10T15:55:43;16.40;57.30
23597;DHT22;40226;50.874;4.394;2023-05-10T15:58:09;16.60;60.80
23597;DHT22;40226;50.874;4.394;2023-05-10T16:00:35;16.70;42.10
23597;DHT22;40226;50.874;4.394;2023-05-10T16:03:01;17.10;36.20
23597;DHT22;40226;50.874;4.394;2023-05-10T16:05:27;17.50;22.00
23597;DHT22;40226;50.874;4.394;2023-05-10T16:07:56;17.90;1.00
23597;DHT22;40226;50.874;4.394;2023-05-10T16:10:22;18.40;1.00
23597;DHT22;40226;50.874;4.394;2023-05-10T16:12:47;19.00;1.00
23597;DHT22;40226;50.874;4.394;2023-05-10T16:15:13;19.30;1.00
23597;DHT22;40226;50.874;4.394;2023-05-10T16:17:39;19.70;1.00